This is the latest recevied weather packets stored in our database for station/object NA4DL. If no packets are shown the sender has not sent any weather packets the latest 10 day(s).
| Time | Temp. | Humidity | Pressure | Rain* | Wind** | Luminosity | Snow |
|---|---|---|---|---|---|---|---|
| 1777544423 | 8.33° C | 97% | 1014.4 hPa | 0 mm | - | 0 W/m² | - |
| 1777537225 | 10.56° C | 90% | 1013.7 hPa | 0 mm | - | 0 W/m² | - |
| 1777534825 | 11.67° C | 91% | 1013.8 hPa | 0 mm | - | 0 W/m² | - |
| 1777533625 | 11.67° C | 88% | 1013.7 hPa | 0 mm | - | 0 W/m² | - |
| 1777530027 | 12.78° C | 88% | 1013.9 hPa | 0 mm | - | 0 W/m² | - |
| 1777527028 | 13.33° C | 89% | 1014.5 hPa | 0 mm | - | 0 W/m² | - |
| 1777526428 | 13.89° C | 88% | 1014.6 hPa | 0 mm | - | 0 W/m² | - |
| 1777524628 | 14.44° C | 84% | 1014.1 hPa | 0 mm | - | 0 W/m² | - |
| 1777522848 | 14.44° C | 82% | 1014 hPa | 0 mm | - | 0 W/m² | - |
| 1777522249 | 15° C | 83% | 1013.9 hPa | 0 mm | - | 0 W/m² | - |
| 1777519820 | 15° C | 83% | 1014.1 hPa | 0 mm | - | 0 W/m² | - |
| 1777519221 | 15° C | 85% | 1013.8 hPa | 0 mm | - | 0 W/m² | - |
| 1777517418 | 15.56° C | 88% | 1013.7 hPa | 0 mm | - | 0 W/m² | - |
| 1777512619 | 15.56° C | 95% | 1013.3 hPa | 0 mm | - | 0 W/m² | - |
| 1777510220 | 16.67° C | 90% | 1012.5 hPa | 0 mm | - | 0 W/m² | - |
| 1777503619 | 20° C | 77% | 1011.9 hPa | 0 mm | - | 63 W/m² | - |
| 1777502419 | 20.56° C | 76% | 1011.9 hPa | 0 mm | - | 93 W/m² | - |
| 1777500017 | 20° C | 77% | 1012.3 hPa | 0 mm | - | 386 W/m² | - |
| 1777498240 | 18.89° C | 85% | 1012.3 hPa | 0 mm | - | 383 W/m² | - |
| 1777496418 | 18.89° C | 86% | 1012.4 hPa | 0 mm | - | 324 W/m² | - |
| 1777495838 | 18.33° C | 87% | 1012.5 hPa | 0 mm | - | 375 W/m² | - |
| 1777493439 | 18.89° C | 87% | 1012.9 hPa | 0 mm | - | 230 W/m² | - |
| 1777492219 | 18.33° C | 91% | 1013.1 hPa | 0 mm | - | 158 W/m² | - |
| 1777491619 | 18.33° C | 90% | 1013.1 hPa | 0 mm | - | 120 W/m² | - |
| 1777481418 | 20.56° C | 92% | 1012.6 hPa | 0 mm | - | 140 W/m² | - |
* Rain latest hour (hover to see other rain measurements)
** Current wind speed in m/s (hover to see current wind gust speed)